sensor_id;sensor_type;location;lat;lon;timestamp;temperature;humidity
2100;DHT22;1055;48.854;9.302;2023-11-21T00:01:56;8.70;99.90
2100;DHT22;1055;48.854;9.302;2023-11-21T00:04:22;8.50;99.90
2100;DHT22;1055;48.854;9.302;2023-11-21T00:06:48;8.30;99.90
2100;DHT22;1055;48.854;9.302;2023-11-21T00:09:14;8.50;99.90
2100;DHT22;1055;48.854;9.302;2023-11-21T00:11:43;8.30;99.90
2100;DHT22;1055;48.854;9.302;2023-11-21T00:14:10;8.30;99.90
2100;DHT22;1055;48.854;9.302;2023-11-21T00:16:36;8.30;99.90
2100;DHT22;1055;48.854;9.302;2023-11-21T00:19:01;8.50;99.90
2100;DHT22;1055;48.854;9.302;2023-11-21T00:21:27;8.30;99.90
2100;DHT22;1055;48.854;9.302;2023-11-21T00:23:53;8.30;99.90
2100;DHT22;1055;48.854;9.302;2023-11-21T00:26:18;8.40;99.90
2100;DHT22;1055;48.854;9.302;2023-11-21T00:28:44;8.40;99.90
2100;DHT22;1055;48.854;9.302;2023-11-21T00:31:10;8.40;99.90
2100;DHT22;1055;48.854;9.302;2023-11-21T00:33:36;8.50;99.90
2100;DHT22;1055;48.854;9.302;2023-11-21T00:36:02;8.40;99.90
2100;DHT22;1055;48.854;9.302;2023-11-21T00:38:27;8.40;99.90
2100;DHT22;1055;48.854;9.302;2023-11-21T00:40:53;8.40;99.90
2100;DHT22;1055;48.854;9.302;2023-11-21T00:43:22;8.40;99.90
2100;DHT22;1055;48.854;9.302;2023-11-21T00:45:48;8.50;99.90
2100;DHT22;1055;48.854;9.302;2023-11-21T00:48:14;8.40;99.90
2100;DHT22;1055;48.854;9.302;2023-11-21T00:50:40;8.40;99.90
2100;DHT22;1055;48.854;9.302;2023-11-21T00:53:06;8.30;99.90
2100;DHT22;1055;48.854;9.302;2023-11-21T00:55:33;8.40;99.90
2100;DHT22;1055;48.854;9.302;2023-11-21T00:57:58;8.40;99.90
2100;DHT22;1055;48.854;9.302;2023-11-21T01:00:25;8.50;99.90
2100;DHT22;1055;48.854;9.302;2023-11-21T01:02:51;8.50;99.90
2100;DHT22;1055;48.854;9.302;2023-11-21T01:05:16;8.50;99.90
2100;DHT22;1055;48.854;9.302;2023-11-21T01:07:42;8.60;99.90
2100;DHT22;1055;48.854;9.302;2023-11-21T01:10:08;8.60;99.90
2100;DHT22;1055;48.854;9.302;2023-11-21T01:12:35;8.70;99.90
2100;DHT22;1055;48.854;9.302;2023-11-21T01:15:03;8.80;99.90
2100;DHT22;1055;48.854;9.302;2023-11-21T01:17:29;8.90;99.90
2100;DHT22;1055;48.854;9.302;2023-11-21T01:19:54;9.20;99.90
2100;DHT22;1055;48.854;9.302;2023-11-21T01:22:21;8.80;99.90
2100;DHT22;1055;48.854;9.302;2023-11-21T01:24:52;8.60;99.90
2100;DHT22;1055;48.854;9.302;2023-11-21T01:27:17;8.60;99.90
2100;DHT22;1055;48.854;9.302;2023-11-21T01:29:44;8.60;99.90
2100;DHT22;1055;48.854;9.302;2023-11-21T01:32:10;8.70;99.90
2100;DHT22;1055;48.854;9.302;2023-11-21T01:34:36;8.60;99.90
2100;DHT22;1055;48.854;9.302;2023-11-21T01:37:02;8.60;99.90
2100;DHT22;1055;48.854;9.302;2023-11-21T01:39:30;8.70;99.90
2100;DHT22;1055;48.854;9.302;2023-11-21T01:41:55;8.80;99.90
2100;DHT22;1055;48.854;9.302;2023-11-21T01:44:24;8.80;99.90
2100;DHT22;1055;48.854;9.302;2023-11-21T01:46:50;8.70;99.90
2100;DHT22;1055;48.854;9.302;2023-11-21T01:49:16;8.70;99.90
2100;DHT22;1055;48.854;9.302;2023-11-21T01:51:44;8.70;99.90
2100;DHT22;1055;48.854;9.302;2023-11-21T01:54:12;8.70;99.90
2100;DHT22;1055;48.854;9.302;2023-11-21T01:56:38;8.70;99.90
2100;DHT22;1055;48.854;9.302;2023-11-21T01:59:04;8.60;99.90
2100;DHT22;1055;48.854;9.302;2023-11-21T02:01:30;8.70;99.90
2100;DHT22;1055;48.854;9.302;2023-11-21T02:03:56;8.60;99.90
2100;DHT22;1055;48.854;9.302;2023-11-21T02:06:21;8.60;99.90
2100;DHT22;1055;48.854;9.302;2023-11-21T02:08:48;9.10;99.90
2100;DHT22;1055;48.854;9.302;2023-11-21T02:11:14;9.30;99.90
2100;DHT22;1055;48.854;9.302;2023-11-21T02:13:40;9.30;99.90
2100;DHT22;1055;48.854;9.302;2023-11-21T02:16:10;9.20;99.90
2100;DHT22;1055;48.854;9.302;2023-11-21T02:18:38;8.80;99.90
2100;DHT22;1055;48.854;9.302;2023-11-21T02:21:04;8.80;99.90
2100;DHT22;1055;48.854;9.302;2023-11-21T02:23:30;8.90;99.90
2100;DHT22;1055;48.854;9.302;2023-11-21T02:25:56;8.90;99.90
2100;DHT22;1055;48.854;9.302;2023-11-21T02:28:21;8.80;99.90
2100;DHT22;1055;48.854;9.302;2023-11-21T02:30:51;9.10;99.90
2100;DHT22;1055;48.854;9.302;2023-11-21T02:33:21;9.00;99.90
2100;DHT22;1055;48.854;9.302;2023-11-21T02:35:47;9.00;99.90
2100;DHT22;1055;48.854;9.302;2023-11-21T02:38:13;8.90;99.90
2100;DHT22;1055;48.854;9.302;2023-11-21T02:40:39;9.00;99.90
2100;DHT22;1055;48.854;9.302;2023-11-21T02:43:04;9.10;99.90
2100;DHT22;1055;48.854;9.302;2023-11-21T02:45:31;9.40;99.90
2100;DHT22;1055;48.854;9.302;2023-11-21T02:47:57;9.30;99.90
2100;DHT22;1055;48.854;9.302;2023-11-21T02:50:23;9.30;99.90
2100;DHT22;1055;48.854;9.302;2023-11-21T02:52:49;9.30;99.90
2100;DHT22;1055;48.854;9.302;2023-11-21T02:55:15;9.30;99.90
2100;DHT22;1055;48.854;9.302;2023-11-21T02:57:41;9.40;99.90
2100;DHT22;1055;48.854;9.302;2023-11-21T03:00:07;9.40;99.90
2100;DHT22;1055;48.854;9.302;2023-11-21T03:02:33;9.50;99.90
2100;DHT22;1055;48.854;9.302;2023-11-21T03:05:04;9.60;99.90
2100;DHT22;1055;48.854;9.302;2023-11-21T03:07:30;9.50;99.90
2100;DHT22;1055;48.854;9.302;2023-11-21T03:09:56;9.60;99.90
2100;DHT22;1055;48.854;9.302;2023-11-21T03:12:21;9.80;99.90
2100;DHT22;1055;48.854;9.302;2023-11-21T03:14:47;9.80;99.90
2100;DHT22;1055;48.854;9.302;2023-11-21T03:17:13;9.80;99.90
2100;DHT22;1055;48.854;9.302;2023-11-21T03:19:41;9.60;99.90
2100;DHT22;1055;48.854;9.302;2023-11-21T03:22:07;10.00;99.90
2100;DHT22;1055;48.854;9.302;2023-11-21T03:24:34;9.90;99.90
2100;DHT22;1055;48.854;9.302;2023-11-21T03:26:59;9.40;99.90
2100;DHT22;1055;48.854;9.302;2023-11-21T03:29:25;9.40;99.90
2100;DHT22;1055;48.854;9.302;2023-11-21T03:31:51;9.20;99.90
2100;DHT22;1055;48.854;9.302;2023-11-21T03:34:23;9.10;99.90
2100;DHT22;1055;48.854;9.302;2023-11-21T03:36:49;9.00;99.90
2100;DHT22;1055;48.854;9.302;2023-11-21T03:39:15;9.00;99.90
2100;DHT22;1055;48.854;9.302;2023-11-21T03:41:40;9.50;99.90
2100;DHT22;1055;48.854;9.302;2023-11-21T03:44:06;9.60;99.90
2100;DHT22;1055;48.854;9.302;2023-11-21T03:46:32;9.60;99.90
2100;DHT22;1055;48.854;9.302;2023-11-21T03:48:57;9.80;99.90
2100;DHT22;1055;48.854;9.302;2023-11-21T03:51:23;9.80;99.90
2100;DHT22;1055;48.854;9.302;2023-11-21T03:53:48;10.10;99.90
2100;DHT22;1055;48.854;9.302;2023-11-21T03:56:14;10.40;99.90
2100;DHT22;1055;48.854;9.302;2023-11-21T03:58:40;10.40;99.90
2100;DHT22;1055;48.854;9.302;2023-11-21T04:01:05;10.60;99.90
2100;DHT22;1055;48.854;9.302;2023-11-21T04:03:31;10.60;99.90
2100;DHT22;1055;48.854;9.302;2023-11-21T04:05:57;10.30;99.90
2100;DHT22;1055;48.854;9.302;2023-11-21T04:08:22;10.00;99.90
2100;DHT22;1055;48.854;9.302;2023-11-21T04:10:48;10.40;99.90
2100;DHT22;1055;48.854;9.302;2023-11-21T04:13:14;10.70;99.90
2100;DHT22;1055;48.854;9.302;2023-11-21T04:15:39;10.60;99.90
2100;DHT22;1055;48.854;9.302;2023-11-21T04:18:05;10.30;99.90
2100;DHT22;1055;48.854;9.302;2023-11-21T04:20:31;10.00;99.90
2100;DHT22;1055;48.854;9.302;2023-11-21T04:22:56;10.00;99.90
2100;DHT22;1055;48.854;9.302;2023-11-21T04:25:22;9.90;99.90
2100;DHT22;1055;48.854;9.302;2023-11-21T04:27:48;9.60;99.90
2100;DHT22;1055;48.854;9.302;2023-11-21T04:30:15;9.50;99.90
2100;DHT22;1055;48.854;9.302;2023-11-21T04:32:40;9.20;99.90
2100;DHT22;1055;48.854;9.302;2023-11-21T04:35:07;9.40;99.90
2100;DHT22;1055;48.854;9.302;2023-11-21T04:37:34;9.50;99.90
2100;DHT22;1055;48.854;9.302;2023-11-21T04:39:59;9.50;99.90
2100;DHT22;1055;48.854;9.302;2023-11-21T04:42:25;9.40;99.90
2100;DHT22;1055;48.854;9.302;2023-11-21T04:44:50;9.30;99.90
2100;DHT22;1055;48.854;9.302;2023-11-21T04:47:18;9.10;99.90
2100;DHT22;1055;48.854;9.302;2023-11-21T04:49:46;9.30;99.90
2100;DHT22;1055;48.854;9.302;2023-11-21T04:52:14;9.50;99.90
2100;DHT22;1055;48.854;9.302;2023-11-21T04:54:40;9.30;99.90
2100;DHT22;1055;48.854;9.302;2023-11-21T04:57:06;9.30;99.90
2100;DHT22;1055;48.854;9.302;2023-11-21T04:59:33;9.00;99.90
2100;DHT22;1055;48.854;9.302;2023-11-21T05:01:59;8.90;99.90
2100;DHT22;1055;48.854;9.302;2023-11-21T05:04:25;8.90;99.90
2100;DHT22;1055;48.854;9.302;2023-11-21T05:06:51;9.00;99.90
2100;DHT22;1055;48.854;9.302;2023-11-21T05:09:16;9.10;99.90
2100;DHT22;1055;48.854;9.302;2023-11-21T05:11:43;9.10;99.90
2100;DHT22;1055;48.854;9.302;2023-11-21T05:14:08;9.00;99.90
2100;DHT22;1055;48.854;9.302;2023-11-21T05:16:34;9.10;99.90
2100;DHT22;1055;48.854;9.302;2023-11-21T05:19:00;9.20;99.90
2100;DHT22;1055;48.854;9.302;2023-11-21T05:21:27;9.20;99.90
2100;DHT22;1055;48.854;9.302;2023-11-21T05:23:53;9.10;99.90
2100;DHT22;1055;48.854;9.302;2023-11-21T05:26:19;9.40;99.90
2100;DHT22;1055;48.854;9.302;2023-11-21T05:28:44;9.80;99.90
2100;DHT22;1055;48.854;9.302;2023-11-21T05:31:10;9.80;99.90
2100;DHT22;1055;48.854;9.302;2023-11-21T05:33:36;9.90;99.90
2100;DHT22;1055;48.854;9.302;2023-11-21T05:36:02;10.20;99.90
2100;DHT22;1055;48.854;9.302;2023-11-21T05:38:27;10.10;99.90
2100;DHT22;1055;48.854;9.302;2023-11-21T05:40:53;9.70;99.90
2100;DHT22;1055;48.854;9.302;2023-11-21T05:43:19;9.90;99.90
2100;DHT22;1055;48.854;9.302;2023-11-21T05:45:45;9.40;99.90
2100;DHT22;1055;48.854;9.302;2023-11-21T05:48:10;9.00;99.90
2100;DHT22;1055;48.854;9.302;2023-11-21T05:50:36;8.90;99.90
2100;DHT22;1055;48.854;9.302;2023-11-21T05:53:03;9.00;99.90
2100;DHT22;1055;48.854;9.302;2023-11-21T05:55:29;9.00;99.90
2100;DHT22;1055;48.854;9.302;2023-11-21T05:57:54;9.00;99.90
2100;DHT22;1055;48.854;9.302;2023-11-21T06:00:20;9.00;99.90
2100;DHT22;1055;48.854;9.302;2023-11-21T06:02:48;9.20;99.90
2100;DHT22;1055;48.854;9.302;2023-11-21T06:05:17;9.20;99.90
2100;DHT22;1055;48.854;9.302;2023-11-21T06:07:43;9.20;99.90
2100;DHT22;1055;48.854;9.302;2023-11-21T06:10:11;9.00;99.90
2100;DHT22;1055;48.854;9.302;2023-11-21T06:12:38;8.80;99.90
2100;DHT22;1055;48.854;9.302;2023-11-21T06:15:06;8.80;99.90
2100;DHT22;1055;48.854;9.302;2023-11-21T06:17:37;8.90;99.90
2100;DHT22;1055;48.854;9.302;2023-11-21T06:20:03;8.90;99.90
2100;DHT22;1055;48.854;9.302;2023-11-21T06:22:38;9.40;99.90
2100;DHT22;1055;48.854;9.302;2023-11-21T06:25:04;9.60;99.90
2100;DHT22;1055;48.854;9.302;2023-11-21T06:27:32;9.70;99.90
2100;DHT22;1055;48.854;9.302;2023-11-21T06:29:58;9.60;99.90
2100;DHT22;1055;48.854;9.302;2023-11-21T06:32:23;10.00;99.90
2100;DHT22;1055;48.854;9.302;2023-11-21T06:34:49;10.20;99.90
2100;DHT22;1055;48.854;9.302;2023-11-21T06:37:15;10.10;99.90
2100;DHT22;1055;48.854;9.302;2023-11-21T06:39:42;10.30;99.90
2100;DHT22;1055;48.854;9.302;2023-11-21T06:42:07;9.70;99.90
2100;DHT22;1055;48.854;9.302;2023-11-21T06:44:33;9.30;99.90
2100;DHT22;1055;48.854;9.302;2023-11-21T06:47:00;9.20;99.90
2100;DHT22;1055;48.854;9.302;2023-11-21T06:49:26;9.10;99.90
2100;DHT22;1055;48.854;9.302;2023-11-21T06:51:51;9.00;99.90
2100;DHT22;1055;48.854;9.302;2023-11-21T06:54:18;9.10;99.90
2100;DHT22;1055;48.854;9.302;2023-11-21T06:56:44;9.00;99.90
2100;DHT22;1055;48.854;9.302;2023-11-21T06:59:10;8.80;99.90
2100;DHT22;1055;48.854;9.302;2023-11-21T07:01:36;8.80;99.90
2100;DHT22;1055;48.854;9.302;2023-11-21T07:04:05;8.50;99.90
2100;DHT22;1055;48.854;9.302;2023-11-21T07:06:31;8.40;99.90
2100;DHT22;1055;48.854;9.302;2023-11-21T07:08:57;8.40;99.90
2100;DHT22;1055;48.854;9.302;2023-11-21T07:11:24;8.50;99.90
2100;DHT22;1055;48.854;9.302;2023-11-21T07:13:49;8.50;99.90
2100;DHT22;1055;48.854;9.302;2023-11-21T07:16:16;8.50;99.90
2100;DHT22;1055;48.854;9.302;2023-11-21T07:18:41;8.40;99.90
2100;DHT22;1055;48.854;9.302;2023-11-21T07:21:08;8.50;99.90
2100;DHT22;1055;48.854;9.302;2023-11-21T07:23:34;8.50;99.90
2100;DHT22;1055;48.854;9.302;2023-11-21T07:25:59;8.50;99.90
2100;DHT22;1055;48.854;9.302;2023-11-21T07:28:25;8.60;99.90
2100;DHT22;1055;48.854;9.302;2023-11-21T07:30:52;8.70;99.90
2100;DHT22;1055;48.854;9.302;2023-11-21T07:33:18;8.80;99.90
2100;DHT22;1055;48.854;9.302;2023-11-21T07:35:43;8.90;99.90
2100;DHT22;1055;48.854;9.302;2023-11-21T07:38:09;8.90;99.90
2100;DHT22;1055;48.854;9.302;2023-11-21T07:40:35;9.20;99.90
2100;DHT22;1055;48.854;9.302;2023-11-21T07:43:01;9.50;99.90
2100;DHT22;1055;48.854;9.302;2023-11-21T07:45:26;9.60;99.90
2100;DHT22;1055;48.854;9.302;2023-11-21T07:47:54;9.60;99.90
2100;DHT22;1055;48.854;9.302;2023-11-21T07:50:21;9.80;99.90
2100;DHT22;1055;48.854;9.302;2023-11-21T07:52:46;9.80;99.90
2100;DHT22;1055;48.854;9.302;2023-11-21T07:55:12;10.00;99.90
2100;DHT22;1055;48.854;9.302;2023-11-21T07:57:39;10.10;99.90
2100;DHT22;1055;48.854;9.302;2023-11-21T08:00:06;10.20;99.90
2100;DHT22;1055;48.854;9.302;2023-11-21T08:02:34;10.20;99.90
2100;DHT22;1055;48.854;9.302;2023-11-21T08:05:00;10.20;99.90
2100;DHT22;1055;48.854;9.302;2023-11-21T08:07:26;10.20;99.90
2100;DHT22;1055;48.854;9.302;2023-11-21T08:09:51;10.20;99.90
2100;DHT22;1055;48.854;9.302;2023-11-21T08:12:18;10.40;99.90
2100;DHT22;1055;48.854;9.302;2023-11-21T08:14:45;10.40;99.90
2100;DHT22;1055;48.854;9.302;2023-11-21T08:17:11;10.30;99.90
2100;DHT22;1055;48.854;9.302;2023-11-21T08:19:36;10.20;99.90
2100;DHT22;1055;48.854;9.302;2023-11-21T08:22:03;10.40;99.90
2100;DHT22;1055;48.854;9.302;2023-11-21T08:24:28;10.20;99.90
2100;DHT22;1055;48.854;9.302;2023-11-21T08:26:54;10.20;99.90
2100;DHT22;1055;48.854;9.302;2023-11-21T08:29:20;10.30;99.90
2100;DHT22;1055;48.854;9.302;2023-11-21T08:31:46;10.30;99.90
2100;DHT22;1055;48.854;9.302;2023-11-21T08:34:14;10.50;99.90
2100;DHT22;1055;48.854;9.302;2023-11-21T08:36:44;10.40;99.90
2100;DHT22;1055;48.854;9.302;2023-11-21T08:39:09;10.60;99.90
2100;DHT22;1055;48.854;9.302;2023-11-21T08:41:38;10.60;99.90
2100;DHT22;1055;48.854;9.302;2023-11-21T08:44:05;10.70;99.90
2100;DHT22;1055;48.854;9.302;2023-11-21T08:46:33;10.60;99.90
2100;DHT22;1055;48.854;9.302;2023-11-21T08:49:01;10.30;99.90
2100;DHT22;1055;48.854;9.302;2023-11-21T08:51:26;10.10;99.90
2100;DHT22;1055;48.854;9.302;2023-11-21T08:53:52;10.00;99.90
2100;DHT22;1055;48.854;9.302;2023-11-21T08:56:18;9.90;99.90
2100;DHT22;1055;48.854;9.302;2023-11-21T08:58:45;9.90;99.90
2100;DHT22;1055;48.854;9.302;2023-11-21T09:01:12;9.80;99.90
2100;DHT22;1055;48.854;9.302;2023-11-21T09:03:38;10.00;99.90
2100;DHT22;1055;48.854;9.302;2023-11-21T09:06:04;10.20;99.90
2100;DHT22;1055;48.854;9.302;2023-11-21T09:08:30;10.10;99.90
2100;DHT22;1055;48.854;9.302;2023-11-21T09:10:57;10.30;99.90
2100;DHT22;1055;48.854;9.302;2023-11-21T09:13:22;10.60;99.90
2100;DHT22;1055;48.854;9.302;2023-11-21T09:15:50;10.80;99.90
2100;DHT22;1055;48.854;9.302;2023-11-21T09:18:16;11.10;99.90
2100;DHT22;1055;48.854;9.302;2023-11-21T09:20:42;11.10;99.90
2100;DHT22;1055;48.854;9.302;2023-11-21T09:23:09;10.60;99.90
2100;DHT22;1055;48.854;9.302;2023-11-21T09:25:35;11.00;99.90
2100;DHT22;1055;48.854;9.302;2023-11-21T09:28:03;11.00;99.90
2100;DHT22;1055;48.854;9.302;2023-11-21T09:30:33;10.50;99.90
2100;DHT22;1055;48.854;9.302;2023-11-21T09:32:59;10.90;99.90
2100;DHT22;1055;48.854;9.302;2023-11-21T09:35:26;10.90;99.90
2100;DHT22;1055;48.854;9.302;2023-11-21T09:37:53;11.10;99.90
2100;DHT22;1055;48.854;9.302;2023-11-21T09:40:21;11.50;99.90
2100;DHT22;1055;48.854;9.302;2023-11-21T09:42:57;11.60;99.90
2100;DHT22;1055;48.854;9.302;2023-11-21T09:45:35;11.60;99.90
2100;DHT22;1055;48.854;9.302;2023-11-21T09:48:01;11.60;99.90
2100;DHT22;1055;48.854;9.302;2023-11-21T09:50:27;11.50;99.90
2100;DHT22;1055;48.854;9.302;2023-11-21T09:53:11;11.60;99.90
2100;DHT22;1055;48.854;9.302;2023-11-21T09:55:42;11.60;99.90
2100;DHT22;1055;48.854;9.302;2023-11-21T09:58:09;11.50;99.90
2100;DHT22;1055;48.854;9.302;2023-11-21T10:00:43;11.50;99.90
2100;DHT22;1055;48.854;9.302;2023-11-21T10:03:10;11.20;99.90
2100;DHT22;1055;48.854;9.302;2023-11-21T10:05:36;11.00;99.90
2100;DHT22;1055;48.854;9.302;2023-11-21T10:08:04;11.00;99.90
2100;DHT22;1055;48.854;9.302;2023-11-21T10:10:32;10.80;99.90
2100;DHT22;1055;48.854;9.302;2023-11-21T10:13:02;10.90;99.90
2100;DHT22;1055;48.854;9.302;2023-11-21T10:15:29;10.70;99.90
2100;DHT22;1055;48.854;9.302;2023-11-21T10:17:56;10.80;99.90
2100;DHT22;1055;48.854;9.302;2023-11-21T10:20:23;10.90;99.90
2100;DHT22;1055;48.854;9.302;2023-11-21T10:22:50;10.90;99.90
2100;DHT22;1055;48.854;9.302;2023-11-21T10:25:15;10.90;99.90
2100;DHT22;1055;48.854;9.302;2023-11-21T10:27:42;11.00;99.90
2100;DHT22;1055;48.854;9.302;2023-11-21T10:30:09;11.20;99.90
2100;DHT22;1055;48.854;9.302;2023-11-21T10:32:41;10.70;99.90
2100;DHT22;1055;48.854;9.302;2023-11-21T10:35:07;10.50;99.90
2100;DHT22;1055;48.854;9.302;2023-11-21T10:37:41;10.80;99.90
2100;DHT22;1055;48.854;9.302;2023-11-21T10:40:10;10.90;99.90
2100;DHT22;1055;48.854;9.302;2023-11-21T10:42:41;10.90;99.90
2100;DHT22;1055;48.854;9.302;2023-11-21T10:45:08;10.80;99.90
2100;DHT22;1055;48.854;9.302;2023-11-21T10:47:44;10.80;99.90
2100;DHT22;1055;48.854;9.302;2023-11-21T10:50:10;10.60;99.90
2100;DHT22;1055;48.854;9.302;2023-11-21T10:52:37;10.50;99.90
2100;DHT22;1055;48.854;9.302;2023-11-21T10:55:25;10.50;99.90
2100;DHT22;1055;48.854;9.302;2023-11-21T10:57:53;10.70;99.90
2100;DHT22;1055;48.854;9.302;2023-11-21T11:00:20;10.50;99.90
2100;DHT22;1055;48.854;9.302;2023-11-21T11:02:49;10.40;99.90
2100;DHT22;1055;48.854;9.302;2023-11-21T11:05:19;10.30;99.90
2100;DHT22;1055;48.854;9.302;2023-11-21T11:07:48;10.30;99.90
2100;DHT22;1055;48.854;9.302;2023-11-21T11:10:18;10.20;99.90
2100;DHT22;1055;48.854;9.302;2023-11-21T11:12:47;10.20;99.90
2100;DHT22;1055;48.854;9.302;2023-11-21T11:15:13;10.60;99.90
2100;DHT22;1055;48.854;9.302;2023-11-21T11:17:39;10.40;99.90
2100;DHT22;1055;48.854;9.302;2023-11-21T11:20:06;10.40;99.90
2100;DHT22;1055;48.854;9.302;2023-11-21T11:22:41;10.60;99.90
2100;DHT22;1055;48.854;9.302;2023-11-21T11:25:29;10.50;99.90
2100;DHT22;1055;48.854;9.302;2023-11-21T11:28:10;10.60;99.90
2100;DHT22;1055;48.854;9.302;2023-11-21T11:31:05;10.60;99.90
2100;DHT22;1055;48.854;9.302;2023-11-21T11:36:36;10.50;99.90
2100;DHT22;1055;48.854;9.302;2023-11-21T11:39:03;10.40;99.90
2100;DHT22;1055;48.854;9.302;2023-11-21T11:41:31;10.30;99.90
2100;DHT22;1055;48.854;9.302;2023-11-21T11:44:02;10.40;99.90
2100;DHT22;1055;48.854;9.302;2023-11-21T11:46:45;10.60;99.90
2100;DHT22;1055;48.854;9.302;2023-11-21T11:49:29;10.80;99.90
2100;DHT22;1055;48.854;9.302;2023-11-21T11:55:00;11.00;99.90
2100;DHT22;1055;48.854;9.302;2023-11-21T11:57:26;10.80;99.90
2100;DHT22;1055;48.854;9.302;2023-11-21T12:00:20;10.60;99.90
2100;DHT22;1055;48.854;9.302;2023-11-21T12:02:49;10.40;99.90
2100;DHT22;1055;48.854;9.302;2023-11-21T12:05:17;10.50;99.90
2100;DHT22;1055;48.854;9.302;2023-11-21T12:10:17;10.80;99.90
2100;DHT22;1055;48.854;9.302;2023-11-21T12:12:48;10.80;99.90
2100;DHT22;1055;48.854;9.302;2023-11-21T12:15:15;10.10;99.90
2100;DHT22;1055;48.854;9.302;2023-11-21T12:17:44;10.40;99.90
2100;DHT22;1055;48.854;9.302;2023-11-21T12:20:11;10.80;99.90
2100;DHT22;1055;48.854;9.302;2023-11-21T12:22:47;10.90;99.90
2100;DHT22;1055;48.854;9.302;2023-11-21T12:25:17;11.20;99.90
2100;DHT22;1055;48.854;9.302;2023-11-21T12:27:47;11.30;99.90
2100;DHT22;1055;48.854;9.302;2023-11-21T12:30:15;11.30;99.90
2100;DHT22;1055;48.854;9.302;2023-11-21T12:32:49;11.10;99.90
2100;DHT22;1055;48.854;9.302;2023-11-21T12:35:15;11.30;99.90
2100;DHT22;1055;48.854;9.302;2023-11-21T12:37:41;11.20;99.90
2100;DHT22;1055;48.854;9.302;2023-11-21T12:40:10;11.60;99.90
2100;DHT22;1055;48.854;9.302;2023-11-21T12:42:45;11.60;99.90
2100;DHT22;1055;48.854;9.302;2023-11-21T12:45:21;11.50;99.90
2100;DHT22;1055;48.854;9.302;2023-11-21T12:47:51;11.10;99.90
2100;DHT22;1055;48.854;9.302;2023-11-21T12:50:22;10.90;99.90
2100;DHT22;1055;48.854;9.302;2023-11-21T12:52:52;11.20;99.90
2100;DHT22;1055;48.854;9.302;2023-11-21T12:55:20;11.60;99.90
2100;DHT22;1055;48.854;9.302;2023-11-21T12:57:51;11.60;99.90
2100;DHT22;1055;48.854;9.302;2023-11-21T13:00:18;11.80;99.90
2100;DHT22;1055;48.854;9.302;2023-11-21T13:02:57;11.50;99.90
2100;DHT22;1055;48.854;9.302;2023-11-21T13:05:28;11.30;99.90
2100;DHT22;1055;48.854;9.302;2023-11-21T13:07:56;11.70;99.90
2100;DHT22;1055;48.854;9.302;2023-11-21T13:10:25;11.40;99.90
2100;DHT22;1055;48.854;9.302;2023-11-21T13:12:52;11.30;99.90
2100;DHT22;1055;48.854;9.302;2023-11-21T13:15:19;11.50;99.90
2100;DHT22;1055;48.854;9.302;2023-11-21T13:17:45;11.70;99.90
2100;DHT22;1055;48.854;9.302;2023-11-21T13:20:14;11.80;99.90
2100;DHT22;1055;48.854;9.302;2023-11-21T13:23:08;11.80;99.90
2100;DHT22;1055;48.854;9.302;2023-11-21T13:25:34;11.70;99.90
2100;DHT22;1055;48.854;9.302;2023-11-21T13:28:02;11.60;99.90
2100;DHT22;1055;48.854;9.302;2023-11-21T13:30:31;11.50;99.90
2100;DHT22;1055;48.854;9.302;2023-11-21T13:33:00;11.30;99.90
2100;DHT22;1055;48.854;9.302;2023-11-21T13:35:32;11.10;99.90
2100;DHT22;1055;48.854;9.302;2023-11-21T13:40:33;10.90;99.90
2100;DHT22;1055;48.854;9.302;2023-11-21T13:43:02;11.10;99.90
2100;DHT22;1055;48.854;9.302;2023-11-21T13:45:30;10.70;99.90
2100;DHT22;1055;48.854;9.302;2023-11-21T13:47:56;10.80;99.90
2100;DHT22;1055;48.854;9.302;2023-11-21T13:50:27;10.70;99.90
2100;DHT22;1055;48.854;9.302;2023-11-21T13:53:01;11.00;99.90
2100;DHT22;1055;48.854;9.302;2023-11-21T13:55:44;11.10;99.90
2100;DHT22;1055;48.854;9.302;2023-11-21T13:58:11;11.20;99.90
2100;DHT22;1055;48.854;9.302;2023-11-21T14:00:42;11.30;99.90
2100;DHT22;1055;48.854;9.302;2023-11-21T14:03:14;11.50;99.90
2100;DHT22;1055;48.854;9.302;2023-11-21T14:05:47;11.60;99.90
2100;DHT22;1055;48.854;9.302;2023-11-21T14:08:20;11.60;99.90
2100;DHT22;1055;48.854;9.302;2023-11-21T14:13:15;11.60;99.90
2100;DHT22;1055;48.854;9.302;2023-11-21T14:15:42;11.40;99.90
2100;DHT22;1055;48.854;9.302;2023-11-21T14:18:11;11.50;99.90
2100;DHT22;1055;48.854;9.302;2023-11-21T14:20:38;11.60;99.90
2100;DHT22;1055;48.854;9.302;2023-11-21T14:23:05;11.40;99.90
2100;DHT22;1055;48.854;9.302;2023-11-21T14:25:35;11.40;99.90
2100;DHT22;1055;48.854;9.302;2023-11-21T14:28:02;11.30;99.90
2100;DHT22;1055;48.854;9.302;2023-11-21T14:30:29;11.40;99.90
2100;DHT22;1055;48.854;9.302;2023-11-21T14:32:58;11.50;99.90
2100;DHT22;1055;48.854;9.302;2023-11-21T14:35:23;11.40;99.90
2100;DHT22;1055;48.854;9.302;2023-11-21T14:37:49;11.30;99.90
2100;DHT22;1055;48.854;9.302;2023-11-21T14:40:15;11.40;99.90
2100;DHT22;1055;48.854;9.302;2023-11-21T14:42:42;11.30;99.90
2100;DHT22;1055;48.854;9.302;2023-11-21T14:45:08;11.30;99.90
2100;DHT22;1055;48.854;9.302;2023-11-21T14:47:37;11.40;99.90
2100;DHT22;1055;48.854;9.302;2023-11-21T14:50:03;11.40;99.90
2100;DHT22;1055;48.854;9.302;2023-11-21T14:52:49;11.50;99.90
2100;DHT22;1055;48.854;9.302;2023-11-21T14:55:24;11.40;99.90
2100;DHT22;1055;48.854;9.302;2023-11-21T14:58:08;11.00;99.90
2100;DHT22;1055;48.854;9.302;2023-11-21T15:00:38;11.20;99.90
2100;DHT22;1055;48.854;9.302;2023-11-21T15:03:10;11.40;99.90
2100;DHT22;1055;48.854;9.302;2023-11-21T15:05:46;11.60;99.90
2100;DHT22;1055;48.854;9.302;2023-11-21T15:08:15;11.40;99.90
2100;DHT22;1055;48.854;9.302;2023-11-21T15:10:56;11.40;99.90
2100;DHT22;1055;48.854;9.302;2023-11-21T15:13:23;11.40;99.90
2100;DHT22;1055;48.854;9.302;2023-11-21T15:15:54;11.40;99.90
2100;DHT22;1055;48.854;9.302;2023-11-21T15:18:23;11.40;99.90
2100;DHT22;1055;48.854;9.302;2023-11-21T15:20:50;11.50;99.90
2100;DHT22;1055;48.854;9.302;2023-11-21T15:23:15;11.40;99.90
2100;DHT22;1055;48.854;9.302;2023-11-21T15:25:45;11.30;99.90
2100;DHT22;1055;48.854;9.302;2023-11-21T15:28:10;10.90;99.90
2100;DHT22;1055;48.854;9.302;2023-11-21T15:30:36;10.90;99.90
2100;DHT22;1055;48.854;9.302;2023-11-21T15:33:02;10.80;99.90
2100;DHT22;1055;48.854;9.302;2023-11-21T15:35:29;10.80;99.90
2100;DHT22;1055;48.854;9.302;2023-11-21T15:37:54;10.90;99.90
2100;DHT22;1055;48.854;9.302;2023-11-21T15:40:24;10.90;99.90
2100;DHT22;1055;48.854;9.302;2023-11-21T15:42:50;10.90;99.90
2100;DHT22;1055;48.854;9.302;2023-11-21T15:45:16;10.90;99.90
2100;DHT22;1055;48.854;9.302;2023-11-21T15:47:44;10.70;99.90
2100;DHT22;1055;48.854;9.302;2023-11-21T15:50:10;10.60;99.90
2100;DHT22;1055;48.854;9.302;2023-11-21T15:52:36;10.60;99.90
2100;DHT22;1055;48.854;9.302;2023-11-21T15:55:02;10.40;99.90
2100;DHT22;1055;48.854;9.302;2023-11-21T15:57:28;10.50;99.90
2100;DHT22;1055;48.854;9.302;2023-11-21T15:59:54;10.60;99.90
2100;DHT22;1055;48.854;9.302;2023-11-21T16:02:19;10.50;99.90
2100;DHT22;1055;48.854;9.302;2023-11-21T16:04:45;10.40;99.90
2100;DHT22;1055;48.854;9.302;2023-11-21T16:07:11;10.20;99.90
2100;DHT22;1055;48.854;9.302;2023-11-21T16:09:37;10.40;99.90
2100;DHT22;1055;48.854;9.302;2023-11-21T16:12:05;10.60;99.90
2100;DHT22;1055;48.854;9.302;2023-11-21T16:14:33;10.60;99.90
2100;DHT22;1055;48.854;9.302;2023-11-21T16:17:11;10.60;99.90
2100;DHT22;1055;48.854;9.302;2023-11-21T16:19:38;10.60;99.90
2100;DHT22;1055;48.854;9.302;2023-11-21T16:22:04;10.60;99.90
2100;DHT22;1055;48.854;9.302;2023-11-21T16:24:31;10.50;99.90
2100;DHT22;1055;48.854;9.302;2023-11-21T16:26:58;10.30;99.90